Time;durP1;ratioP1;P1;durP2;ratioP2;P2;SDS_P1;SDS_P2;PMS_P1;PMS_P2;Temp;Humidity;BMP_temperature;BMP_pressure;BME280_temperature;BME280_humidity;BME280_pressure;Samples;Min_cycle;Max_cycle;Signal;HPM_P1;HPM_P2
2022/06/21 00:00:41;;;;;;;1.55;0.70;;;;;;;;;;5062876;28;20207;-69
2022/06/21 00:03:09;;;;;;;0.60;0.60;;;;;;;;;;5062840;28;20204;-69
2022/06/21 00:05:37;;;;;;;2.83;0.63;;;;;;;;;;5062608;28;20232;-69
2022/06/21 00:08:03;;;;;;;2.20;0.80;;;;;;;;;;5062386;28;20366;-69
2022/06/21 00:10:34;;;;;;;1.73;0.65;;;;;;;;;;5062818;28;20197;-69
2022/06/21 00:13:00;;;;;;;0.82;0.80;;;;;;;;;;5062586;28;20228;-69
2022/06/21 00:15:28;;;;;;;0.75;0.70;;;;;;;;;;5062633;28;20497;-69
2022/06/21 00:17:54;;;;;;;1.27;0.70;;;;;;;;;;5062398;28;20201;-69
2022/06/21 00:20:22;;;;;;;0.60;0.60;;;;;;;;;;5062536;28;20193;-69
2022/06/21 00:22:48;;;;;;;0.93;0.60;;;;;;;;;;5062769;28;20209;-69
2022/06/21 00:25:16;;;;;;;0.60;0.60;;;;;;;;;;5062591;28;20203;-69
2022/06/21 00:27:43;;;;;;;1.75;0.60;;;;;;;;;;5062049;28;20190;-69
2022/06/21 00:30:10;;;;;;;1.15;0.50;;;;;;;;;;5062346;28;20468;-69
2022/06/21 00:32:37;;;;;;;1.00;0.80;;;;;;;;;;5062411;28;20198;-69
2022/06/21 00:35:06;;;;;;;0.80;0.50;;;;;;;;;;5062316;28;20197;-69
2022/06/21 00:37:32;;;;;;;0.70;0.70;;;;;;;;;;5062397;28;20403;-69
2022/06/21 00:39:58;;;;;;;1.90;0.70;;;;;;;;;;5062294;28;20200;-69
2022/06/21 00:42:28;;;;;;;0.70;0.70;;;;;;;;;;5062353;28;20204;-69
2022/06/21 00:45:00;;;;;;;2.15;0.80;;;;;;;;;;5062165;28;20256;-69
2022/06/21 00:47:30;;;;;;;1.38;0.63;;;;;;;;;;5061965;28;20272;-69
2022/06/21 00:49:58;;;;;;;0.68;0.68;;;;;;;;;;5062219;28;20217;-69
2022/06/21 00:52:26;;;;;;;2.95;0.80;;;;;;;;;;5062278;28;20197;-69
2022/06/21 00:54:54;;;;;;;1.45;0.60;;;;;;;;;;5062214;28;20197;-69
2022/06/21 00:57:22;;;;;;;0.63;0.52;;;;;;;;;;5061929;28;20197;-69
2022/06/21 00:59:50;;;;;;;0.65;0.50;;;;;;;;;;5062034;28;20197;-69
2022/06/21 01:02:18;;;;;;;1.13;0.70;;;;;;;;;;5062128;28;20200;-69
2022/06/21 01:04:46;;;;;;;1.95;0.77;;;;;;;;;;5062025;28;20201;-69
2022/06/21 01:07:14;;;;;;;1.02;0.50;;;;;;;;;;5061810;28;20253;-69
2022/06/21 01:12:46;;;;;;;1.25;0.60;;;;;;;;;;5061369;28;20232;-69
2022/06/21 01:15:16;;;;;;;0.63;0.63;;;;;;;;;;5062040;28;20205;-69
2022/06/21 01:17:42;;;;;;;1.20;0.57;;;;;;;;;;5061745;28;20197;-69
2022/06/21 01:20:10;;;;;;;1.55;0.60;;;;;;;;;;5062018;28;20370;-69
2022/06/21 01:22:41;;;;;;;0.75;0.75;;;;;;;;;;5061776;28;20449;-69
2022/06/21 01:25:14;;;;;;;1.40;0.50;;;;;;;;;;5061936;28;20250;-69
2022/06/21 01:27:42;;;;;;;0.88;0.70;;;;;;;;;;5061712;28;20197;-69
2022/06/21 01:30:09;;;;;;;0.50;0.50;;;;;;;;;;5061897;28;20243;-69
2022/06/21 01:32:35;;;;;;;1.08;0.77;;;;;;;;;;5061835;28;20430;-69
2022/06/21 01:35:07;;;;;;;0.70;0.70;;;;;;;;;;5061685;28;20201;-69
2022/06/21 01:37:33;;;;;;;1.23;0.77;;;;;;;;;;5061404;28;20243;-69
2022/06/21 01:40:02;;;;;;;0.60;0.55;;;;;;;;;;5062556;28;20497;-69
2022/06/21 01:42:30;;;;;;;2.17;0.80;;;;;;;;;;5065660;28;20429;-69
2022/06/21 01:44:59;;;;;;;6.68;0.93;;;;;;;;;;5065930;28;20204;-69
2022/06/21 01:47:29;;;;;;;0.50;0.50;;;;;;;;;;5065232;28;20197;-69
2022/06/21 01:49:59;;;;;;;0.80;0.80;;;;;;;;;;5065282;28;20445;-69
2022/06/21 01:52:26;;;;;;;1.35;0.60;;;;;;;;;;5065514;28;20422;-69
2022/06/21 01:54:56;;;;;;;1.75;0.90;;;;;;;;;;5065385;28;20243;-69
2022/06/21 01:57:22;;;;;;;1.23;0.55;;;;;;;;;;5065172;28;20243;-69
2022/06/21 01:59:50;;;;;;;1.45;0.73;;;;;;;;;;5065210;28;20201;-69
2022/06/21 02:02:20;;;;;;;1.15;0.50;;;;;;;;;;5065105;28;20197;-69
2022/06/21 02:04:51;;;;;;;1.08;0.70;;;;;;;;;;5065059;28;20235;-69
2022/06/21 02:07:19;;;;;;;2.53;0.77;;;;;;;;;;5064997;28;20516;-69
2022/06/21 02:09:48;;;;;;;1.75;0.47;;;;;;;;;;5065050;28;20446;-69
2022/06/21 02:12:15;;;;;;;0.88;0.70;;;;;;;;;;5064912;28;20201;-69
2022/06/21 02:14:50;;;;;;;4.20;0.77;;;;;;;;;;5064906;28;20205;-69
2022/06/21 02:17:19;;;;;;;1.55;0.80;;;;;;;;;;5064897;28;20606;-69
2022/06/21 02:19:48;;;;;;;1.05;0.85;;;;;;;;;;5065024;28;20193;-69
2022/06/21 02:22:16;;;;;;;0.70;0.70;;;;;;;;;;5064846;28;20197;-69
2022/06/21 02:24:43;;;;;;;1.50;0.80;;;;;;;;;;5064830;28;20236;-69
2022/06/21 02:27:10;;;;;;;0.95;0.73;;;;;;;;;;5064476;28;20435;-69
2022/06/21 02:29:36;;;;;;;1.05;0.80;;;;;;;;;;5064813;28;20523;-69
2022/06/21 02:32:03;;;;;;;0.68;0.68;;;;;;;;;;5064555;28;20197;-69
2022/06/21 02:34:32;;;;;;;0.88;0.80;;;;;;;;;;5064666;28;20211;-69
2022/06/21 02:37:01;;;;;;;0.70;0.70;;;;;;;;;;5064436;28;20201;-69
2022/06/21 02:39:29;;;;;;;0.75;0.70;;;;;;;;;;5064375;28;20231;-69
2022/06/21 02:41:58;;;;;;;1.55;0.82;;;;;;;;;;5064341;28;20243;-69
2022/06/21 02:44:26;;;;;;;0.60;0.60;;;;;;;;;;5064340;28;20197;-69
2022/06/21 02:46:54;;;;;;;1.13;0.70;;;;;;;;;;5064269;28;20197;-69
2022/06/21 02:49:21;;;;;;;0.80;0.60;;;;;;;;;;5064285;28;20221;-69
2022/06/21 02:51:50;;;;;;;1.23;0.70;;;;;;;;;;5064131;28;20200;-69
2022/06/21 02:54:21;;;;;;;1.35;0.80;;;;;;;;;;5064256;28;20201;-69
2022/06/21 02:56:49;;;;;;;1.67;0.60;;;;;;;;;;5063864;28;20198;-69
2022/06/21 02:59:16;;;;;;;3.70;0.80;;;;;;;;;;5064287;28;20194;-69
2022/06/21 03:01:43;;;;;;;1.65;0.70;;;;;;;;;;5064117;28;20428;-69
2022/06/21 03:04:17;;;;;;;0.93;0.80;;;;;;;;;;5064083;28;20213;-69
2022/06/21 03:06:43;;;;;;;3.88;0.68;;;;;;;;;;5063565;28;20225;-69
2022/06/21 03:09:12;;;;;;;2.50;0.98;;;;;;;;;;5063676;28;20201;-69
2022/06/21 03:11:41;;;;;;;0.70;0.70;;;;;;;;;;5063777;28;20205;-69
2022/06/21 03:14:09;;;;;;;2.25;0.70;;;;;;;;;;5063798;28;20307;-69
2022/06/21 03:16:35;;;;;;;1.92;0.82;;;;;;;;;;5063735;28;20205;-69
2022/06/21 03:19:03;;;;;;;2.42;0.82;;;;;;;;;;5063737;28;20197;-69
2022/06/21 03:21:30;;;;;;;1.25;0.98;;;;;;;;;;5063509;28;20243;-69
2022/06/21 03:23:58;;;;;;;1.25;0.85;;;;;;;;;;5063817;28;20242;-69
2022/06/21 03:26:26;;;;;;;0.80;0.80;;;;;;;;;;5063539;28;20209;-69
2022/06/21 03:28:53;;;;;;;1.17;0.93;;;;;;;;;;5063599;28;20204;-69
2022/06/21 03:31:21;;;;;;;1.35;1.02;;;;;;;;;;5063557;28;20225;-69
2022/06/21 03:33:49;;;;;;;2.60;1.02;;;;;;;;;;5063551;28;20196;-69
2022/06/21 03:36:17;;;;;;;1.75;0.85;;;;;;;;;;5063096;28;20445;-69
2022/06/21 03:38:45;;;;;;;4.40;0.90;;;;;;;;;;5063635;28;20414;-69
2022/06/21 03:43:59;;;;;;;1.95;0.98;;;;;;;;;;5063282;28;20268;-69
2022/06/21 03:46:27;;;;;;;2.97;1.00;;;;;;;;;;5062945;28;20204;-69
2022/06/21 03:48:56;;;;;;;2.80;0.90;;;;;;;;;;5063266;28;20493;-69
2022/06/21 03:51:26;;;;;;;0.80;0.80;;;;;;;;;;5063427;28;20268;-69
2022/06/21 03:53:54;;;;;;;3.13;1.05;;;;;;;;;;5063181;28;20201;-69
2022/06/21 03:56:22;;;;;;;1.63;1.02;;;;;;;;;;5063263;28;20204;-69
2022/06/21 03:58:53;;;;;;;4.70;1.33;;;;;;;;;;5062966;28;20197;-69
2022/06/21 04:01:23;;;;;;;2.17;0.90;;;;;;;;;;5062961;28;20460;-69
2022/06/21 04:03:54;;;;;;;1.15;1.02;;;;;;;;;;5062511;28;20243;-69
2022/06/21 04:06:23;;;;;;;2.25;0.85;;;;;;;;;;5062566;28;20296;-69
2022/06/21 04:08:52;;;;;;;2.30;0.93;;;;;;;;;;5062595;28;20197;-69
2022/06/21 04:11:20;;;;;;;1.80;0.88;;;;;;;;;;5062708;28;20259;-69
2022/06/21 04:13:51;;;;;;;1.10;0.90;;;;;;;;;;5062562;28;20267;-69
2022/06/21 04:16:20;;;;;;;1.40;1.08;;;;;;;;;;5062358;28;20427;-69
2022/06/21 04:18:49;;;;;;;2.35;1.13;;;;;;;;;;5062535;28;20197;-69
2022/06/21 04:21:19;;;;;;;1.80;1.17;;;;;;;;;;5062692;28;20262;-68
2022/06/21 04:23:47;;;;;;;1.42;0.90;;;;;;;;;;5062552;28;20235;-69
2022/06/21 04:26:16;;;;;;;1.23;1.20;;;;;;;;;;5062282;28;20201;-69
2022/06/21 04:28:45;;;;;;;1.75;1.00;;;;;;;;;;5062589;28;20204;-68
2022/06/21 04:31:13;;;;;;;1.05;0.80;;;;;;;;;;5062439;28;20225;-69
2022/06/21 04:33:41;;;;;;;1.58;0.95;;;;;;;;;;5062294;28;20272;-68
2022/06/21 04:36:10;;;;;;;1.13;1.02;;;;;;;;;;5062224;28;20235;-69
2022/06/21 04:38:39;;;;;;;1.60;1.50;;;;;;;;;;5062222;28;20504;-69
2022/06/21 04:41:07;;;;;;;3.40;1.33;;;;;;;;;;5062443;28;20197;-69
2022/06/21 04:43:37;;;;;;;1.45;1.35;;;;;;;;;;5062395;28;20205;-69
2022/06/21 04:46:05;;;;;;;2.33;2.08;;;;;;;;;;5062108;28;20205;-69
2022/06/21 04:48:36;;;;;;;1.95;1.60;;;;;;;;;;5062103;28;20197;-69
2022/06/21 04:51:04;;;;;;;1.77;1.40;;;;;;;;;;5062457;28;20251;-69
2022/06/21 04:53:33;;;;;;;2.00;1.13;;;;;;;;;;5062250;28;20201;-69
2022/06/21 04:56:03;;;;;;;1.95;1.48;;;;;;;;;;5062292;28;20493;-69
2022/06/21 04:58:30;;;;;;;2.72;1.30;;;;;;;;;;5062182;28;20197;-69
2022/06/21 05:00:57;;;;;;;2.05;1.40;;;;;;;;;;5062068;28;20260;-69
2022/06/21 05:03:26;;;;;;;1.95;1.30;;;;;;;;;;5062531;28;20189;-69
2022/06/21 05:05:52;;;;;;;5.43;3.40;;;;;;;;;;5061737;28;20455;-69
2022/06/21 05:08:21;;;;;;;3.10;1.83;;;;;;;;;;5061423;28;20204;-68
2022/06/21 05:10:50;;;;;;;2.45;2.25;;;;;;;;;;5061998;28;20217;-68
2022/06/21 05:13:20;;;;;;;3.05;1.70;;;;;;;;;;5062009;28;20396;-68
2022/06/21 05:15:46;;;;;;;3.35;1.50;;;;;;;;;;5063415;28;20429;-68
2022/06/21 05:18:14;;;;;;;2.33;1.25;;;;;;;;;;5065502;28;20204;-68
2022/06/21 05:20:45;;;;;;;2.95;1.38;;;;;;;;;;5065379;28;20216;-68
2022/06/21 05:23:11;;;;;;;3.00;1.35;;;;;;;;;;5065898;28;20201;-68
2022/06/21 05:25:41;;;;;;;2.10;1.23;;;;;;;;;;5065487;28;20197;-68
2022/06/21 05:28:13;;;;;;;1.48;1.33;;;;;;;;;;5065123;28;20201;-68
2022/06/21 05:30:41;;;;;;;3.03;1.40;;;;;;;;;;5065095;28;20246;-68
2022/06/21 05:33:12;;;;;;;1.40;1.30;;;;;;;;;;5065437;28;20259;-68
2022/06/21 05:35:38;;;;;;;1.83;1.40;;;;;;;;;;5065304;28;20201;-68
2022/06/21 05:38:05;;;;;;;1.88;1.45;;;;;;;;;;5066502;28;20267;-69
2022/06/21 05:40:36;;;;;;;3.83;1.33;;;;;;;;;;5066677;28;20194;-68
2022/06/21 05:43:03;;;;;;;3.60;1.38;;;;;;;;;;5065000;28;20235;-68
2022/06/21 05:45:32;;;;;;;1.98;1.55;;;;;;;;;;5064888;28;20228;-68
2022/06/21 05:48:01;;;;;;;2.92;1.35;;;;;;;;;;5064580;28;20196;-68
2022/06/21 05:50:29;;;;;;;2.53;1.23;;;;;;;;;;5064802;28;20275;-68
2022/06/21 05:52:57;;;;;;;3.55;1.40;;;;;;;;;;5064857;28;20208;-68
2022/06/21 05:55:26;;;;;;;1.33;1.20;;;;;;;;;;5064844;28;20312;-68
2022/06/21 05:57:54;;;;;;;1.70;1.48;;;;;;;;;;5065015;28;20494;-68
2022/06/21 06:00:24;;;;;;;1.42;1.00;;;;;;;;;;5065421;28;20193;-68
2022/06/21 06:02:53;;;;;;;3.42;1.60;;;;;;;;;;5065067;28;20197;-68
2022/06/21 06:05:21;;;;;;;1.83;1.30;;;;;;;;;;5065106;28;20229;-68
2022/06/21 06:07:49;;;;;;;1.20;1.20;;;;;;;;;;5064989;28;20201;-68
2022/06/21 06:10:16;;;;;;;1.58;1.23;;;;;;;;;;5065027;28;20212;-68
2022/06/21 06:12:44;;;;;;;4.07;1.40;;;;;;;;;;5063670;28;20500;-67
2022/06/21 06:15:12;;;;;;;4.82;1.48;;;;;;;;;;5052971;28;20225;-69
2022/06/21 06:17:41;;;;;;;1.65;1.20;;;;;;;;;;5049379;28;20667;-69
2022/06/21 06:20:14;;;;;;;1.88;1.10;;;;;;;;;;5058632;28;20205;-68
2022/06/21 06:22:43;;;;;;;2.15;1.45;;;;;;;;;;5058704;28;20710;-68
2022/06/21 06:25:15;;;;;;;2.88;0.90;;;;;;;;;;5057047;28;20259;-69
2022/06/21 06:27:45;;;;;;;1.63;1.35;;;;;;;;;;5047397;28;20256;-68
2022/06/21 06:30:13;;;;;;;1.27;1.15;;;;;;;;;;5046764;28;20237;-68
2022/06/21 06:32:41;;;;;;;3.70;1.30;;;;;;;;;;5053343;28;20213;-68
2022/06/21 06:35:14;;;;;;;2.60;1.25;;;;;;;;;;5056635;28;20271;-67
2022/06/21 06:37:42;;;;;;;3.95;1.58;;;;;;;;;;5057528;28;20427;-60
2022/06/21 06:40:20;;;;;;;6.03;0.80;;;;;;;;;;5047989;28;20539;-61
2022/06/21 06:42:47;;;;;;;1.58;1.15;;;;;;;;;;5039583;28;20221;-60
2022/06/21 06:45:16;;;;;;;2.03;1.33;;;;;;;;;;5056564;28;20216;-60
2022/06/21 06:47:45;;;;;;;1.95;1.20;;;;;;;;;;5056916;28;20220;-60
2022/06/21 06:50:15;;;;;;;2.22;0.85;;;;;;;;;;5039011;28;20220;-60
2022/06/21 06:52:46;;;;;;;5.65;3.20;;;;;;;;;;5037288;28;20221;-60
2022/06/21 06:55:15;;;;;;;2.15;1.95;;;;;;;;;;5042303;28;20486;-60
2022/06/21 06:57:44;;;;;;;3.47;2.00;;;;;;;;;;5056897;28;20213;-60
2022/06/21 07:00:13;;;;;;;5.05;1.92;;;;;;;;;;5056482;28;20220;-60
2022/06/21 07:02:41;;;;;;;1.80;1.27;;;;;;;;;;5056480;28;20508;-60
2022/06/21 07:05:10;;;;;;;1.88;1.60;;;;;;;;;;5038603;28;20258;-60
2022/06/21 07:07:44;;;;;;;2.35;1.83;;;;;;;;;;5042823;28;20201;-60
2022/06/21 07:10:16;;;;;;;2.90;1.10;;;;;;;;;;5053854;28;20227;-61
2022/06/21 07:12:42;;;;;;;4.60;2.30;;;;;;;;;;5047172;28;20227;-60
2022/06/21 07:15:10;;;;;;;2.30;1.90;;;;;;;;;;5041580;28;20213;-59
2022/06/21 07:17:38;;;;;;;1.70;1.60;;;;;;;;;;5045112;28;20213;-59
2022/06/21 07:20:06;;;;;;;4.90;2.03;;;;;;;;;;5056137;28;20284;-60
2022/06/21 07:22:35;;;;;;;1.15;1.15;;;;;;;;;;5055785;28;20209;-60
2022/06/21 07:25:04;;;;;;;5.78;3.70;;;;;;;;;;5051641;28;20525;-59
2022/06/21 07:27:34;;;;;;;8.07;1.80;;;;;;;;;;5039280;28;20213;-59
2022/06/21 07:30:03;;;;;;;2.05;1.48;;;;;;;;;;5052816;28;20271;-60
2022/06/21 07:32:32;;;;;;;2.67;1.13;;;;;;;;;;5056096;28;20232;-60
2022/06/21 07:35:01;;;;;;;6.32;1.10;;;;;;;;;;5054977;28;20209;-58
2022/06/21 07:37:30;;;;;;;5.60;1.05;;;;;;;;;;5054893;28;20555;-59
2022/06/21 07:39:58;;;;;;;1.23;1.08;;;;;;;;;;5056108;28;20220;-60
2022/06/21 07:42:29;;;;;;;1.60;1.10;;;;;;;;;;5054944;28;20204;-60
2022/06/21 07:44:59;;;;;;;1.55;1.02;;;;;;;;;;5054932;28;20220;-61
2022/06/21 07:47:28;;;;;;;1.67;0.95;;;;;;;;;;5034841;28;20237;-60
2022/06/21 07:49:56;;;;;;;2.85;1.20;;;;;;;;;;5042816;28;20209;-60
2022/06/21 07:52:25;;;;;;;3.42;1.10;;;;;;;;;;5055395;28;20267;-60
2022/06/21 07:54:53;;;;;;;1.10;1.00;;;;;;;;;;5054172;28;20536;-61
2022/06/21 07:57:22;;;;;;;1.17;1.13;;;;;;;;;;5054418;28;20236;-60
2022/06/21 07:59:52;;;;;;;2.63;0.88;;;;;;;;;;5044484;28;20217;-60
2022/06/21 08:08:04;;;;;;;1.40;1.30;;;;;;;;;;5040393;28;20212;-60
2022/06/21 08:10:32;;;;;;;1.85;1.20;;;;;;;;;;5035407;28;20214;-60
2022/06/21 08:12:58;;;;;;;2.38;1.15;;;;;;;;;;5039280;28;20217;-60
2022/06/21 08:15:27;;;;;;;2.95;1.30;;;;;;;;;;5034245;28;20213;-61
2022/06/21 08:17:58;;;;;;;2.35;1.13;;;;;;;;;;5037847;28;20217;-61
2022/06/21 08:20:26;;;;;;;4.13;1.10;;;;;;;;;;5034556;28;20213;-60
2022/06/21 08:22:55;;;;;;;2.72;1.20;;;;;;;;;;5037899;28;20453;-61
2022/06/21 08:25:25;;;;;;;1.67;1.10;;;;;;;;;;5054619;28;20509;-60
2022/06/21 08:27:55;;;;;;;12.85;9.50;;;;;;;;;;5053692;28;20550;-60
2022/06/21 08:30:22;;;;;;;8.93;3.58;;;;;;;;;;5054191;28;20528;-60
2022/06/21 08:32:51;;;;;;;3.22;2.70;;;;;;;;;;5055112;28;20236;-61
2022/06/21 08:35:23;;;;;;;2.30;1.42;;;;;;;;;;5054105;28;20219;-62
2022/06/21 08:37:52;;;;;;;2.60;1.70;;;;;;;;;;5053991;28;20409;-61
2022/06/21 08:40:27;;;;;;;1.67;1.50;;;;;;;;;;5054770;28;20212;-60
2022/06/21 08:43:09;;;;;;;3.25;1.08;;;;;;;;;;5050077;28;20406;-59
2022/06/21 08:45:50;;;;;;;4.78;1.25;;;;;;;;;;5051012;28;20253;-59
2022/06/21 08:48:35;;;;;;;3.55;1.98;;;;;;;;;;5026586;28;20214;-57
2022/06/21 08:51:19;;;;;;;1.80;1.13;;;;;;;;;;5049899;28;20385;-59
2022/06/21 08:53:52;;;;;;;2.38;1.00;;;;;;;;;;5052619;28;20543;-60
2022/06/21 08:56:22;;;;;;;1.85;1.27;;;;;;;;;;5033402;28;20255;-60
2022/06/21 08:58:57;;;;;;;1.70;1.23;;;;;;;;;;5033898;28;20213;-61
2022/06/21 09:01:27;;;;;;;1.42;1.10;;;;;;;;;;5045399;28;20543;-61
2022/06/21 09:04:03;;;;;;;2.63;1.13;;;;;;;;;;5053783;28;20562;-60
2022/06/21 09:06:35;;;;;;;1.80;1.30;;;;;;;;;;5041975;28;20236;-59
2022/06/21 09:09:17;;;;;;;1.90;1.42;;;;;;;;;;5039554;28;20280;-59
2022/06/21 09:11:50;;;;;;;3.03;1.27;;;;;;;;;;5037385;28;20244;-60
2022/06/21 09:14:31;;;;;;;1.52;1.13;;;;;;;;;;5034092;28;20420;-61
2022/06/21 09:17:02;;;;;;;1.55;1.25;;;;;;;;;;5047669;28;20543;-60
2022/06/21 09:19:35;;;;;;;1.65;1.23;;;;;;;;;;5049924;28;20240;-60
2022/06/21 09:22:07;;;;;;;1.58;1.15;;;;;;;;;;5050543;28;20212;-59
2022/06/21 09:24:39;;;;;;;1.42;1.33;;;;;;;;;;5033512;28;20296;-59
2022/06/21 09:27:08;;;;;;;2.10;1.20;;;;;;;;;;5050740;28;20219;-59
2022/06/21 09:29:37;;;;;;;3.38;1.10;;;;;;;;;;5053493;28;20408;-59
2022/06/21 09:32:07;;;;;;;1.38;1.27;;;;;;;;;;5033439;28;20249;-59
2022/06/21 09:34:39;;;;;;;3.45;2.17;;;;;;;;;;5050472;28;20213;-60
2022/06/21 09:37:09;;;;;;;2.10;1.30;;;;;;;;;;5053909;28;20544;-59
2022/06/21 09:39:41;;;;;;;3.40;1.52;;;;;;;;;;5053965;28;20528;-59
2022/06/21 09:42:10;;;;;;;1.35;1.35;;;;;;;;;;5053475;28;20642;-60
2022/06/21 09:44:38;;;;;;;3.72;1.45;;;;;;;;;;5053684;28;20242;-59
2022/06/21 09:47:09;;;;;;;1.40;1.38;;;;;;;;;;5048925;28;20271;-60
2022/06/21 09:49:41;;;;;;;4.22;1.90;;;;;;;;;;5041981;28;20212;-59
2022/06/21 09:52:13;;;;;;;3.00;1.80;;;;;;;;;;5033420;28;20233;-59
2022/06/21 09:54:47;;;;;;;3.55;1.60;;;;;;;;;;5041330;28;20219;-59
2022/06/21 09:57:20;;;;;;;2.35;1.23;;;;;;;;;;5031833;28;20279;-60
2022/06/21 09:59:50;;;;;;;1.77;1.30;;;;;;;;;;5033343;28;20224;-59
2022/06/21 10:02:20;;;;;;;3.33;1.42;;;;;;;;;;5052873;28;20409;-59
2022/06/21 10:04:50;;;;;;;6.32;3.40;;;;;;;;;;5041156;28;20246;-60
2022/06/21 10:07:19;;;;;;;3.97;1.90;;;;;;;;;;5047965;28;20216;-60
2022/06/21 10:09:52;;;;;;;2.42;1.50;;;;;;;;;;5042512;28;20213;-61
2022/06/21 10:12:25;;;;;;;4.68;1.35;;;;;;;;;;5036776;28;20225;-60
2022/06/21 10:15:04;;;;;;;4.03;1.02;;;;;;;;;;5041851;28;20241;-60
2022/06/21 10:17:47;;;;;;;2.70;1.30;;;;;;;;;;5057771;28;20219;-61
2022/06/21 10:20:22;;;;;;;1.75;1.10;;;;;;;;;;5056239;28;20216;-60
2022/06/21 10:22:50;;;;;;;2.20;1.63;;;;;;;;;;5056605;28;20520;-60
2022/06/21 10:25:31;;;;;;;3.13;1.20;;;;;;;;;;5056126;28;20664;-60
2022/06/21 10:28:10;;;;;;;2.47;1.42;;;;;;;;;;5058038;28;20219;-60
2022/06/21 10:30:43;;;;;;;4.05;1.60;;;;;;;;;;5052442;28;20224;-60
2022/06/21 10:33:16;;;;;;;2.33;1.67;;;;;;;;;;5056107;28;20233;-60
2022/06/21 10:35:49;;;;;;;3.90;1.45;;;;;;;;;;5056324;28;20219;-60
2022/06/21 10:38:28;;;;;;;3.35;1.40;;;;;;;;;;5056375;28;20463;-60
2022/06/21 10:41:03;;;;;;;1.77;1.42;;;;;;;;;;5048027;28;20242;-61
2022/06/21 10:43:37;;;;;;;1.65;1.23;;;;;;;;;;5044949;28;20368;-62
2022/06/21 10:46:09;;;;;;;2.88;1.63;;;;;;;;;;5052431;28;20413;-61
2022/06/21 10:48:56;;;;;;;2.05;1.50;;;;;;;;;;5047576;28;20418;-61
2022/06/21 10:51:27;;;;;;;2.55;1.80;;;;;;;;;;5038972;28;20216;-60
2022/06/21 10:54:04;;;;;;;3.25;1.60;;;;;;;;;;5056157;28;20548;-59
2022/06/21 11:01:16;;;;;;;1.75;1.50;;;;;;;;;;5043621;28;20216;-60
2022/06/21 11:02:27;;;;;;;4.10;2.33;;;;;;;;;;5042507;28;20284;-60
2022/06/21 11:04:59;;;;;;;2.40;1.67;;;;;;;;;;5038171;28;20225;-60
2022/06/21 11:07:30;;;;;;;3.10;2.20;;;;;;;;;;5055612;28;20212;-60
2022/06/21 11:09:58;;;;;;;3.83;1.80;;;;;;;;;;5040477;28;20213;-60
2022/06/21 11:15:14;;;;;;;3.58;1.73;;;;;;;;;;5053382;28;20235;-59
2022/06/21 11:17:48;;;;;;;5.40;1.60;;;;;;;;;;5046207;28;20283;-58
2022/06/21 11:20:18;;;;;;;6.80;2.20;;;;;;;;;;5036383;28;20210;-61
2022/06/21 11:22:46;;;;;;;5.30;2.10;;;;;;;;;;5049679;28;20656;-59
2022/06/21 11:25:17;;;;;;;3.35;1.60;;;;;;;;;;5037746;28;20398;-59
2022/06/21 11:27:49;;;;;;;2.15;1.70;;;;;;;;;;5041142;28;20205;-58
2022/06/21 11:30:19;;;;;;;4.18;2.10;;;;;;;;;;5053874;28;20453;-60
2022/06/21 11:32:49;;;;;;;2.30;1.90;;;;;;;;;;5035712;28;20259;-60
2022/06/21 11:35:20;;;;;;;1.85;1.75;;;;;;;;;;5039328;28;20213;-60
2022/06/21 11:37:56;;;;;;;3.75;2.00;;;;;;;;;;5034773;28;20577;-60
2022/06/21 11:40:30;;;;;;;4.13;2.45;;;;;;;;;;5038192;28;20393;-60
2022/06/21 11:42:58;;;;;;;3.25;1.90;;;;;;;;;;5055631;28;20295;-59
2022/06/21 11:45:36;;;;;;;2.20;1.98;;;;;;;;;;5054430;28;20258;-60
2022/06/21 11:48:24;;;;;;;4.38;1.90;;;;;;;;;;5046560;28;20478;-60
2022/06/21 11:50:56;;;;;;;5.82;1.98;;;;;;;;;;5055149;28;20258;-60
2022/06/21 11:53:30;;;;;;;5.90;2.10;;;;;;;;;;5055427;28;20354;-59
2022/06/21 11:55:57;;;;;;;2.47;2.20;;;;;;;;;;5050470;28;20251;-59
2022/06/21 11:58:28;;;;;;;5.25;2.10;;;;;;;;;;5035518;28;20454;-60
2022/06/21 12:01:01;;;;;;;9.70;2.13;;;;;;;;;;5054621;28;20472;-60
2022/06/21 12:03:31;;;;;;;4.10;2.20;;;;;;;;;;5052021;28;20383;-59
2022/06/21 12:06:01;;;;;;;3.72;1.75;;;;;;;;;;5052486;28;20282;-61
2022/06/21 12:08:30;;;;;;;2.28;1.95;;;;;;;;;;5050856;28;20251;-60
2022/06/21 12:11:01;;;;;;;5.05;2.40;;;;;;;;;;5046059;28;20220;-59
2022/06/21 12:13:37;;;;;;;3.92;2.00;;;;;;;;;;5043637;28;20221;-59
2022/06/21 12:16:16;;;;;;;2.13;1.85;;;;;;;;;;5047345;28;20216;-60
2022/06/21 12:19:03;;;;;;;5.05;2.20;;;;;;;;;;5044616;28;20469;-60
2022/06/21 12:21:30;;;;;;;5.40;2.20;;;;;;;;;;5048831;28;20208;-60
2022/06/21 12:23:58;;;;;;;4.43;2.20;;;;;;;;;;5054236;28;20208;-58
2022/06/21 12:26:25;;;;;;;4.35;2.30;;;;;;;;;;5041906;28;20212;-60
2022/06/21 12:28:55;;;;;;;2.47;2.00;;;;;;;;;;5054189;28;20216;-60
2022/06/21 12:31:23;;;;;;;5.20;1.98;;;;;;;;;;5054611;28;20519;-59
2022/06/21 12:33:52;;;;;;;2.65;2.22;;;;;;;;;;5054069;28;20462;-60
2022/06/21 12:36:27;;;;;;;2.30;2.10;;;;;;;;;;5049488;28;20446;-61
2022/06/21 12:38:56;;;;;;;3.75;2.40;;;;;;;;;;5054686;28;20212;-62
2022/06/21 12:41:26;;;;;;;2.28;2.05;;;;;;;;;;5038972;28;20300;-61
2022/06/21 12:43:58;;;;;;;3.85;2.53;;;;;;;;;;5034585;28;20523;-61
2022/06/21 12:46:30;;;;;;;2.47;2.00;;;;;;;;;;5050513;28;20543;-61
2022/06/21 12:49:16;;;;;;;2.75;2.30;;;;;;;;;;5042006;28;20208;-61
2022/06/21 12:51:47;;;;;;;2.97;2.30;;;;;;;;;;5042389;28;20213;-62
2022/06/21 12:54:20;;;;;;;5.28;2.30;;;;;;;;;;5051992;28;20318;-60
2022/06/21 12:56:58;;;;;;;3.05;2.10;;;;;;;;;;5043350;28;20478;-60
2022/06/21 12:59:35;;;;;;;2.70;2.35;;;;;;;;;;5034191;28;20271;-60
2022/06/21 13:02:19;;;;;;;3.47;2.40;;;;;;;;;;5042348;28;20213;-59
2022/06/21 13:04:53;;;;;;;2.58;2.35;;;;;;;;;;5051974;28;20244;-61
2022/06/21 13:07:26;;;;;;;3.65;2.40;;;;;;;;;;5053839;28;20203;-60
2022/06/21 13:10:12;;;;;;;2.60;2.28;;;;;;;;;;5042214;28;20263;-61
2022/06/21 13:13:01;;;;;;;3.70;2.60;;;;;;;;;;5051005;28;20598;-61
2022/06/21 13:15:54;;;;;;;5.57;2.50;;;;;;;;;;5045973;28;20482;-60
2022/06/21 13:18:32;;;;;;;5.25;2.60;;;;;;;;;;5044548;28;20211;-61
2022/06/21 13:21:15;;;;;;;6.10;2.63;;;;;;;;;;5046446;28;20519;-61
2022/06/21 13:24:02;;;;;;;3.58;2.50;;;;;;;;;;5043788;28;20469;-61
2022/06/21 13:26:49;;;;;;;3.70;2.50;;;;;;;;;;5038139;28;20213;-60
2022/06/21 13:29:22;;;;;;;6.70;2.15;;;;;;;;;;5043536;28;20411;-61
2022/06/21 13:31:55;;;;;;;3.42;2.40;;;;;;;;;;5053609;28;20219;-61
2022/06/21 13:34:27;;;;;;;3.00;2.47;;;;;;;;;;5053602;28;20228;-61
2022/06/21 13:36:57;;;;;;;3.35;2.13;;;;;;;;;;5055217;28;20675;-61
2022/06/21 13:39:28;;;;;;;2.22;1.98;;;;;;;;;;5057261;28;20208;-62
2022/06/21 13:44:45;;;;;;;3.03;2.20;;;;;;;;;;5041923;28;20208;-61
2022/06/21 13:47:14;;;;;;;2.72;2.38;;;;;;;;;;5055205;28;20251;-61
2022/06/21 13:49:43;;;;;;;3.00;2.20;;;;;;;;;;5051895;28;20213;-60
2022/06/21 13:52:12;;;;;;;3.42;2.08;;;;;;;;;;5037052;28;20283;-60
2022/06/21 13:54:55;;;;;;;5.05;2.33;;;;;;;;;;5036903;28;20524;-60
2022/06/21 13:57:36;;;;;;;6.90;2.75;;;;;;;;;;5036429;28;20236;-61
2022/06/21 14:00:04;;;;;;;5.03;2.58;;;;;;;;;;5053429;28;20527;-61
2022/06/21 14:02:36;;;;;;;4.45;2.20;;;;;;;;;;5049216;28;20511;-61
2022/06/21 14:05:06;;;;;;;3.70;2.13;;;;;;;;;;5053108;28;20472;-60
2022/06/21 14:07:37;;;;;;;2.50;2.30;;;;;;;;;;5037031;28;20254;-61
2022/06/21 14:10:08;;;;;;;8.48;2.53;;;;;;;;;;5054050;28;20219;-61
2022/06/21 14:12:41;;;;;;;3.72;2.53;;;;;;;;;;5056847;28;20250;-69
2022/06/21 14:15:10;;;;;;;5.30;2.72;;;;;;;;;;5052334;28;20235;-69
2022/06/21 14:17:49;;;;;;;4.05;2.65;;;;;;;;;;5049909;28;20219;-69
2022/06/21 14:20:18;;;;;;;6.70;2.80;;;;;;;;;;5047011;28;20212;-69
2022/06/21 14:22:51;;;;;;;6.15;2.45;;;;;;;;;;5046844;28;20208;-69
2022/06/21 14:25:22;;;;;;;4.70;2.53;;;;;;;;;;5056727;28;20220;-68
2022/06/21 14:27:52;;;;;;;2.50;2.38;;;;;;;;;;5055818;28;20456;-69
2022/06/21 14:30:20;;;;;;;3.95;2.40;;;;;;;;;;5045999;28;20267;-69
2022/06/21 14:32:51;;;;;;;5.05;2.58;;;;;;;;;;5036692;28;20406;-69
2022/06/21 14:35:20;;;;;;;4.03;2.20;;;;;;;;;;5035787;28;20266;-68
2022/06/21 14:37:51;;;;;;;3.03;2.70;;;;;;;;;;5035981;28;20208;-67
2022/06/21 14:40:21;;;;;;;9.30;2.72;;;;;;;;;;5047064;28;20236;-67
2022/06/21 14:42:50;;;;;;;2.88;2.55;;;;;;;;;;5055631;28;20266;-67
2022/06/21 14:45:20;;;;;;;2.75;2.47;;;;;;;;;;5054001;28;20528;-68
2022/06/21 14:47:51;;;;;;;3.03;2.58;;;;;;;;;;5053998;28;20238;-68
2022/06/21 14:50:20;;;;;;;4.40;2.88;;;;;;;;;;5045785;28;20213;-68
2022/06/21 14:53:04;;;;;;;4.60;3.00;;;;;;;;;;5046048;28;20459;-68
2022/06/21 14:55:39;;;;;;;4.78;2.58;;;;;;;;;;5056710;28;20212;-68
2022/06/21 14:58:11;;;;;;;4.10;2.35;;;;;;;;;;5050922;28;20455;-68
2022/06/21 15:00:43;;;;;;;3.08;2.38;;;;;;;;;;5038951;28;20209;-68
2022/06/21 15:03:16;;;;;;;3.92;2.40;;;;;;;;;;5040384;28;20229;-68
2022/06/21 15:05:51;;;;;;;2.80;2.55;;;;;;;;;;5035601;28;20590;-68
2022/06/21 15:08:22;;;;;;;3.65;3.10;;;;;;;;;;5039686;28;20283;-68
2022/06/21 15:10:50;;;;;;;6.03;2.97;;;;;;;;;;5044808;28;20279;-68
2022/06/21 15:13:19;;;;;;;3.05;2.75;;;;;;;;;;5041764;28;20426;-68
2022/06/21 15:15:48;;;;;;;9.30;3.10;;;;;;;;;;5055350;28;20212;-68
2022/06/21 15:18:19;;;;;;;5.95;2.80;;;;;;;;;;5054905;28;20223;-67
2022/06/21 15:20:46;;;;;;;3.17;2.88;;;;;;;;;;5037609;28;20461;-68
2022/06/21 15:23:15;;;;;;;4.80;2.65;;;;;;;;;;5037418;28;20213;-68